地図

経路データ

SID SEASON NUMBER BASIN SUBBASIN NAME ISO_TIME NATURE LAT LON WMO_WIND WMO_PRES WMO_AGENCY TRACK_TYPE DIST2LAND LANDFALL IFLAG USA_AGENCY USA_ATCF_ID USA_LAT USA_LON USA_RECORD USA_STATUS USA_WIND USA_PRES USA_SSHS USA_R34_NE USA_R34_SE USA_R34_SW USA_R34_NW USA_R50_NE USA_R50_SE USA_R50_SW USA_R50_NW USA_R64_NE USA_R64_SE USA_R64_SW USA_R64_NW USA_POCI USA_ROCI USA_RMW USA_EYE TOKYO_LAT TOKYO_LON TOKYO_GRADE TOKYO_WIND TOKYO_PRES TOKYO_R50_DIR TOKYO_R50_LONG TOKYO_R50_SHORT TOKYO_R30_DIR TOKYO_R30_LONG TOKYO_R30_SHORT TOKYO_LAND CMA_LAT CMA_LON CMA_CAT CMA_WIND CMA_PRES HKO_LAT HKO_LON HKO_CAT HKO_WIND HKO_PRES NEWDELHI_LAT NEWDELHI_LON NEWDELHI_GRADE NEWDELHI_WIND NEWDELHI_PRES NEWDELHI_CI NEWDELHI_DP NEWDELHI_POCI REUNION_LAT REUNION_LON REUNION_TYPE REUNION_WIND REUNION_PRES REUNION_TNUM REUNION_CI REUNION_RMW REUNION_R34_NE REUNION_R34_SE REUNION_R34_SW REUNION_R34_NW REUNION_R50_NE REUNION_R50_SE REUNION_R50_SW REUNION_R50_NW REUNION_R64_NE REUNION_R64_SE REUNION_R64_SW REUNION_R64_NW BOM_LAT BOM_LON BOM_TYPE BOM_WIND BOM_PRES BOM_TNUM BOM_CI BOM_RMW BOM_R34_NE BOM_R34_SE BOM_R34_SW BOM_R34_NW BOM_R50_NE BOM_R50_SE BOM_R50_SW BOM_R50_NW BOM_R64_NE BOM_R64_SE BOM_R64_SW BOM_R64_NW BOM_ROCI BOM_POCI BOM_EYE BOM_POS_METHOD BOM_PRES_METHOD NADI_LAT NADI_LON NADI_CAT NADI_WIND NADI_PRES WELLINGTON_LAT WELLINGTON_LON WELLINGTON_WIND WELLINGTON_PRES DS824_LAT DS824_LON DS824_STAGE DS824_WIND DS824_PRES TD9636_LAT TD9636_LON TD9636_STAGE TD9636_WIND TD9636_PRES TD9635_LAT TD9635_LON TD9635_WIND TD9635_PRES TD9635_ROCI NEUMANN_LAT NEUMANN_LON NEUMANN_CLASS NEUMANN_WIND NEUMANN_PRES MLC_LAT MLC_LON MLC_CLASS MLC_WIND MLC_PRES USA_GUST BOM_GUST BOM_GUST_PER REUNION_GUST REUNION_GUST_PER USA_SEAHGT USA_SEARAD_NE USA_SEARAD_SE USA_SEARAD_SW USA_SEARAD_NW STORM_SPEED STORM_DIR
1866060S13091 1866 4 SI WA NOT_NAMED 1866-02-28 18:00:00 NR -13.3000 90.6000 main 1588 1588 __________O___ -1 -13.3000 90.6000 7 4 249
1866060S13091 1866 4 SI WA NOT_NAMED 1866-02-28 21:00:00 NR -13.3736 90.4032 main 1610 1610 __________P___ -1 -13.3736 90.4032 7 4 249
1866060S13091 1866 4 SI WA NOT_NAMED 1866-03-01 00:00:00 NR -13.4477 90.2151 main 1623 1623 __________P___ -1 -13.4477 90.2151 7 4 247
1866060S13091 1866 4 SI WA NOT_NAMED 1866-03-01 03:00:00 NR -13.5229 90.0445 main 1645 1639 __________P___ -1 -13.5229 90.0445 7 1 234
1866060S13091 1866 4 SI WA NOT_NAMED 1866-03-01 06:00:00 NR -13.5000 90.1400 main 1639 1632 _____O____O___ -1 -13.1000 91.1000 99 9.90000 -13.6000 89.9000 7 1 85
1866060S13091 1866 4 SI WA NOT_NAMED 1866-03-01 09:00:00 NR -13.5138 90.1604 main 1632 1632 _____P____P___ -1 -13.1836 90.9081 99 -13.6790 89.7865 7 0 0
1866060S13091 1866 4 SI WA NOT_NAMED 1866-03-01 12:00:00 NR -13.5469 90.1318 main 1639 1639 _____P____P___ -1 -13.2662 90.7177 99 -13.7574 89.6924 7 1 230
1866060S13091 1866 4 SI WA NOT_NAMED 1866-03-01 15:00:00 NR -13.5896 90.0663 main 1647 1647 _____P____P___ -1 -13.3472 90.5305 99 -13.8321 89.6021 7 2 240
1866060S13091 1866 4 SI MM NOT_NAMED 1866-03-01 18:00:00 NR -13.6628 89.9241 main 1669 1669 _____P____O___ -1 -13.4257 90.3481 99 -13.9000 89.5000 7 3 244
1866060S13091 1866 4 SI MM NOT_NAMED 1866-03-01 21:00:00 NR -13.7291 89.7642 main 1676 1676 _____P____P___ -1 -13.5010 90.1722 99 -13.9572 89.3562 7 3 248
1866060S13091 1866 4 SI MM NOT_NAMED 1866-03-02 00:00:00 NR -13.7899 89.6022 main 1698 1698 _____P____P___ -1 -13.5723 90.0044 99 -14.0076 89.2000 7 3 249
1866060S13091 1866 4 SI MM NOT_NAMED 1866-03-02 03:00:00 NR -13.8465 89.4451 main 1711 1711 _____P____P___ -1 -13.6389 89.8465 99 -14.0541 89.0437 7 3 249
1866060S13091 1866 4 SI MM NOT_NAMED 1866-03-02 06:00:00 NR -13.9000 89.3000 main 1727 1727 _____O____O___ -1 -13.7000 89.7000 99 9.90000 -14.1000 88.9000 7 3 248
1866060S13091 1866 4 SI MM NOT_NAMED 1866-03-02 09:00:00 NR -13.9506 89.1798 main 1742 1742 _____P____P___ -1 -13.7553 89.5660 99 -14.1459 88.7937 7 2 246
1866060S13091 1866 4 SI MM NOT_NAMED 1866-03-02 12:00:00 NR -13.9992 89.0714 main 1749 1749 _____P____P___ -1 -13.8060 89.4428 99 -14.1924 88.6999 7 2 245
1866060S13091 1866 4 SI MM NOT_NAMED 1866-03-02 15:00:00 NR -14.0481 88.9672 main 1756 1756 _____P____P___ -1 -13.8535 89.3281 99 -14.2427 88.6062 7 2 244
1866060S13091 1866 4 SI MM NOT_NAMED 1866-03-02 18:00:00 NR -14.0998 88.8598 main 1771 1771 _____P____O___ -1 -13.8996 89.2196 99 -14.3000 88.5000 7 3 244
1866060S13091 1866 4 SI MM NOT_NAMED 1866-03-02 21:00:00 NR -14.1568 88.7356 main 1794 1794 _____P____P___ -1 -13.9458 89.1149 99 -14.3679 88.3563 7 3 244
1866060S13091 1866 4 SI MM NOT_NAMED 1866-03-03 00:00:00 NR -14.2180 88.6058 main 1801 1801 _____P____P___ -1 -13.9935 89.0116 99 -14.4426 88.2000 7 3 244
1866060S13091 1866 4 SI MM NOT_NAMED 1866-03-03 03:00:00 NR -14.2827 88.4756 main 1816 1816 _____P____P___ -1 -14.0444 88.9074 99 -14.5210 88.0438 7 3 242
1866060S13091 1866 4 SI MM NOT_NAMED 1866-03-03 06:00:00 NR -14.3500 88.3500 main 1823 1832 _____O____O___ -1 -14.1000 88.8000 99 9.90000 -14.6000 87.9000 7 3 240
1866060S13091 1866 4 SI MM NOT_NAMED 1866-03-03 09:00:00 NR -14.4203 88.2346 main 1846 1846 _____P____P___ -1 -14.1657 88.6796 99 -14.6749 87.7896 7 3 237
1866060S13091 1866 4 SI MM NOT_NAMED 1866-03-03 12:00:00 NR -14.4928 88.1248 main 1861 1861 _____P____P___ -1 -14.2356 88.5572 99 -14.7499 87.6924 7 3 236
1866060S13091 1866 4 SI MM NOT_NAMED 1866-03-03 15:00:00 NR -14.5669 88.0160 main 1877 1877 _____P____P___ -1 -14.3089 88.4330 99 -14.8249 87.5990 7 3 235
1866060S13091 1866 4 SI MM NOT_NAMED 1866-03-03 18:00:00 NR -14.6425 87.9037 main 1884 1884 _____P____O___ -1 -14.3849 88.3075 99 -14.9000 87.5000 7 3 236
1866060S13091 1866 4 SI MM NOT_NAMED 1866-03-03 21:00:00 NR -14.7189 87.7816 main 1899 1899 _____P____P___ -1 -14.4628 88.1810 99 -14.9750 87.3822 7 3 237
1866060S13091 1866 4 SI MM NOT_NAMED 1866-03-04 00:00:00 NR -14.7959 87.6558 main 1915 1915 _____P____P___ -1 -14.5418 88.0540 99 -15.0500 87.2575 7 3 238
1866060S13091 1866 4 SI MM NOT_NAMED 1866-03-04 03:00:00 NR -14.8731 87.5280 main 1937 1937 _____P____P___ -1 -14.6211 87.9269 99 -15.1250 87.1290 7 3 238
1866060S13091 1866 4 SI MM NOT_NAMED 1866-03-04 06:00:00 NR -14.9500 87.4000 main 1944 1944 _____O____O___ -1 -14.7000 87.8000 99 9.90000 -15.2000 87.0000 7 3 239
1866060S13091 1866 4 SI MM NOT_NAMED 1866-03-04 09:00:00 NR -15.0250 87.2700 main 1960 1960 _____P____P___ -1 -14.7750 87.6730 99 -15.2750 86.8669 7 3 239
1866060S13091 1866 4 SI MM NOT_NAMED 1866-03-04 12:00:00 NR -15.1000 87.1404 main 1983 1983 _____P____P___ -1 -14.8499 87.5459 99 -15.3500 86.7350 7 3 239
1866060S13091 1866 4 SI MM NOT_NAMED 1866-03-04 15:00:00 NR -15.1750 87.0147 main 1998 1998 _____P____P___ -1 -14.9249 87.4189 99 -15.4250 86.6106 7 3 237
1866060S13091 1866 4 SI MM NOT_NAMED 1866-03-04 18:00:00 NR -15.2500 86.8962 main 2005 2005 _____P____O___ -1 -14.9999 87.2924 99 -15.5000 86.5000 7 2 235
1866060S13091 1866 4 SI MM NOT_NAMED 1866-03-04 21:00:00 NR -15.3147 86.8069 main 2021 2021 _____P____P___ -1 -15.0749 87.1669 99 -15.5545 86.4469 7 2 232
1866060S13091 1866 4 SI MM NOT_NAMED 1866-03-05 00:00:00 NR -15.3811 86.7224 main 2036 2036 _____P____P___ -1 -15.1500 87.0427 99 -15.6122 86.4020 7 2 231
1866060S13091 1866 4 SI MM NOT_NAMED 1866-03-05 03:00:00 NR -15.4569 86.6257 main 2052 2052 _____P____P___ -1 -15.2250 86.9203 99 -15.6888 86.3312 7 3 231
1866060S13091 1866 4 SI MM NOT_NAMED 1866-03-05 06:00:00 NR -15.5500 86.5000 main 2059 2067 _____O____O___ -1 -15.3000 86.8000 99 9.90000 -15.8000 86.2000 7 3 235
1866060S13091 1866 4 SI MM NOT_NAMED 1866-03-05 09:00:00 NR -15.6509 86.3349 main 2090 2090 _____P____P___ -1 -15.3498 86.7090 99 -15.9521 85.9607 7 4 238
1866060S13091 1866 4 SI MM NOT_NAMED 1866-03-05 12:00:00 NR -15.7684 86.1418 main 2113 2113 _____P____P___ -1 -15.3965 86.6234 99 -16.1403 85.6601 7 5 237
1866060S13091 1866 4 SI MM NOT_NAMED 1866-03-05 15:00:00 NR -15.9019 85.9334 main 2135 2135 _____P____P___ -1 -15.4454 86.5374 99 -16.3583 85.3294 7 5 235
1866060S13091 1866 4 SI MM NOT_NAMED 1866-03-05 18:00:00 NR -16.0507 85.7227 main 2166 2166 _____P____O___ -1 -15.5014 86.4453 99 -16.6000 85.0000 7 5 232
1866060S13091 1866 4 SI MM NOT_NAMED 1866-03-05 21:00:00 NR -16.2147 85.5191 main 2189 2189 _____P____P___ -1 -15.5698 86.3414 99 -16.8596 84.6968 7 4 228
1866060S13091 1866 4 SI MM NOT_NAMED 1866-03-06 00:00:00 NR -16.2886 85.4475 main 2205 2205 _____P____P___ -1 -15.6556 86.2197 99 -17.1325 84.4180 7 1 217
1866060S13091 1866 4 SI MM NOT_NAMED 1866-03-06 03:00:00 NR -16.3140 85.4348 main 2205 2197 _____P____P___ -1 -15.7640 86.0745 99 -17.4141 84.1552 7 1 65
1866060S13091 1866 4 SI MM NOT_NAMED 1866-03-06 06:00:00 NR -16.2600 85.5000 main 2197 2166 _____O____O___ -1 -15.9000 85.9000 99 9.90000 -17.7000 83.9000 7 3 43
1866060S13091 1866 4 SI MM NOT_NAMED 1866-03-06 09:00:00 NR -16.0951 85.6503 main 2166 2166 _____P________ -1 -16.0951 85.6503 99 7 1 244
1866060S13091 1866 4 SI MM NOT_NAMED 1866-03-06 12:00:00 NR -16.3196 85.3674 main 2205 2205 _____P________ -1 -16.3196 85.3674 99 7 7 230
1866060S13091 1866 4 SI MM NOT_NAMED 1866-03-06 15:00:00 NR -16.5649 85.0623 main 2251 2251 _____P________ -1 -16.5649 85.0623 99 7 8 230
1866060S13091 1866 4 SI MM NOT_NAMED 1866-03-06 18:00:00 NR -16.8223 84.7463 main 2297 2297 _____P________ -1 -16.8223 84.7463 99 8 229
1866060S13091 1866 4 SI MM NOT_NAMED 1866-03-06 21:00:00 NR -17.0830 84.4306 main 2343 2343 _____P________ -1 -17.0830 84.4306 99 8 229
1866060S13091 1866 4 SI MM NOT_NAMED 1866-03-07 00:00:00 NR -17.3385 84.1267 main 2381 2381 _____P________ -1 -17.3385 84.1267 99 8 228
1866060S13091 1866 4 SI MM NOT_NAMED 1866-03-07 03:00:00 NR -17.5803 83.8459 main 2428 2428 _____P________ -1 -17.5803 83.8459 99 7 227
1866060S13091 1866 4 SI MM NOT_NAMED 1866-03-07 06:00:00 NR -17.8000 83.6000 main 2458 2458 _____O________ -1 -17.8000 83.6000 99 9.90000 6 226
1866060S13091 1866 4 SI MM NOT_NAMED 1866-03-07 09:00:00 NR -17.9912 83.3977 main 2489 2489 _____P________ -1 -17.9912 83.3977 99 5 224
1866060S13091 1866 4 SI MM NOT_NAMED 1866-03-07 12:00:00 NR -18.1558 83.2361 main 2520 2520 _____P________ -1 -18.1558 83.2361 99 4 222
1866060S13091 1866 4 SI MM NOT_NAMED 1866-03-07 15:00:00 NR -18.2977 83.1096 main 2535 2535 _____P________ -1 -18.2977 83.1096 99 3 219
1866060S13091 1866 4 SI MM NOT_NAMED 1866-03-07 18:00:00 NR -18.4208 83.0125 main 2551 2551 _____P________ -1 -18.4208 83.0125 99 3 215
1866060S13091 1866 4 SI MM NOT_NAMED 1866-03-07 21:00:00 NR -18.5287 82.9388 main 2566 2566 _____P________ -1 -18.5287 82.9388 99 2 212
1866060S13091 1866 4 SI MM NOT_NAMED 1866-03-08 00:00:00 NR -18.6254 82.8827 main 2574 2574 _____P________ -1 -18.6254 82.8827 99 2 207
1866060S13091 1866 4 SI MM NOT_NAMED 1866-03-08 03:00:00 NR -18.7146 82.8384 main 2589 2589 _____P________ -1 -18.7146 82.8384 99 2 203
1866060S13091 1866 4 SI MM NOT_NAMED 1866-03-08 06:00:00 NR -18.8000 82.8000 main 2597 _____O________ -1 -18.8000 82.8000 99 9.90000 2 208

IBTrACS Databaseについて

本データベースは、米国NOAAが公開する1842年以降の世界の熱帯低気圧のベストトラックデータアーカイブInternational Best Track Archive for Climate Stewardship (IBTrACS)を、ウェブで閲覧しやすい形式に変換したものです。

最終更新日:2021-10-08